Time;durP1;ratioP1;P1;durP2;ratioP2;P2;SDS_P1;SDS_P2;PMS_P1;PMS_P2;Temp;Humidity;BMP_temperature;BMP_pressure;BME280_temperature;BME280_humidity;BME280_pressure;Samples;Min_cycle;Max_cycle;Signal;HPM_P1;HPM_P2
2022/04/27 00:02:32;;;;;;;;;;;7.10;99.90;;;;;;5113466;28;19920;-77
2022/04/27 00:05:02;;;;;;;;;;;7.00;99.90;;;;;;5078160;28;19923;-77
2022/04/27 00:07:36;;;;;;;;;;;7.00;99.90;;;;;;5077884;28;19987;-77
2022/04/27 00:10:06;;;;;;;;;;;7.00;99.90;;;;;;5113036;28;19956;-78
2022/04/27 00:12:36;;;;;;;;;;;7.00;99.90;;;;;;5114044;28;19999;-77
2022/04/27 00:15:05;;;;;;;;;;;7.00;99.90;;;;;;5079080;28;19958;-77
2022/04/27 00:17:35;;;;;;;;;;;7.00;99.90;;;;;;5111454;28;19928;-77
2022/04/27 00:20:08;;;;;;;;;;;7.00;99.90;;;;;;5112557;28;19943;-78
2022/04/27 00:22:38;;;;;;;;;;;7.00;99.90;;;;;;5110816;28;19967;-77
2022/04/27 00:25:10;;;;;;;;;;;7.00;99.90;;;;;;5112839;28;20394;-78
2022/04/27 00:27:42;;;;;;;;;;;7.00;99.90;;;;;;5079287;28;19924;-78
2022/04/27 00:30:12;;;;;;;;;;;6.90;99.90;;;;;;5098153;28;19935;-78
2022/04/27 00:32:52;;;;;;;;;;;6.90;99.90;;;;;;5113380;28;19919;-77
2022/04/27 00:35:21;;;;;;;;;;;6.90;99.90;;;;;;5097221;28;19955;-78
2022/04/27 00:37:49;;;;;;;;;;;6.90;99.90;;;;;;5080725;28;20023;-77
2022/04/27 00:40:21;;;;;;;;;;;6.90;99.90;;;;;;5115905;28;20019;-78
2022/04/27 00:42:52;;;;;;;;;;;6.90;99.90;;;;;;5115144;28;19924;-78
2022/04/27 00:45:22;;;;;;;;;;;;;;;;;;5096597;28;19920;-77
2022/04/27 00:47:52;;;;;;;;;;;6.90;99.90;;;;;;5096365;28;19919;-78
2022/04/27 00:50:20;;;;;;;;;;;6.90;99.90;;;;;;5111830;28;19920;-77
2022/04/27 00:52:51;;;;;;;;;;;6.90;99.90;;;;;;5097826;28;19928;-78
2022/04/27 00:55:19;;;;;;;;;;;6.90;99.90;;;;;;5107809;28;19960;-77
2022/04/27 00:57:47;;;;;;;;;;;6.90;99.90;;;;;;5096052;28;19924;-78
2022/04/27 01:00:24;;;;;;;;;;;7.00;99.90;;;;;;5094019;28;20374;-77
2022/04/27 01:02:54;;;;;;;;;;;7.00;99.90;;;;;;5093785;28;20009;-78
2022/04/27 01:05:23;;;;;;;;;;;7.00;99.90;;;;;;5617466;22;19920;-80
2022/04/27 01:08:00;;;;;;;;;;;7.00;99.90;;;;;;5087338;28;19959;-82
2022/04/27 01:10:28;;;;;;;;;;;;;;;;;;5088045;28;20126;-81
2022/04/27 01:12:56;;;;;;;;;;;7.10;99.90;;;;;;5072524;28;19970;-81
2022/04/27 01:15:33;;;;;;;;;;;7.10;99.90;;;;;;5094903;28;20317;-81
2022/04/27 01:18:04;;;;;;;;;;;7.10;99.90;;;;;;5086969;28;19979;-82
2022/04/27 01:20:37;;;;;;;;;;;7.10;99.90;;;;;;5092909;28;19928;-82
2022/04/27 01:23:05;;;;;;;;;;;7.10;99.90;;;;;;5108710;28;20222;-82
2022/04/27 01:26:05;;;;;;;;;;;7.10;99.90;;;;;;5086474;28;19930;-82
2022/04/27 01:28:33;;;;;;;;;;;7.10;99.90;;;;;;5049088;28;19920;-81
2022/04/27 01:31:01;;;;;;;;;;;7.20;99.90;;;;;;5082565;28;19924;-81
2022/04/27 01:33:30;;;;;;;;;;;7.20;99.90;;;;;;5087553;28;19920;-78
2022/04/27 01:35:59;;;;;;;;;;;7.30;99.90;;;;;;5089803;28;19978;-80
2022/04/27 01:38:35;;;;;;;;;;;7.30;99.90;;;;;;5105166;28;19924;-79
2022/04/27 01:41:06;;;;;;;;;;;7.40;99.90;;;;;;5093971;28;19919;-78
2022/04/27 01:43:34;;;;;;;;;;;7.30;99.90;;;;;;5093980;28;20011;-80
2022/04/27 01:46:05;;;;;;;;;;;7.30;99.90;;;;;;5095007;28;19931;-79
2022/04/27 01:48:36;;;;;;;;;;;7.30;99.90;;;;;;5094582;28;19923;-78
2022/04/27 01:51:05;;;;;;;;;;;7.30;99.90;;;;;;5097027;28;19920;-77
2022/04/27 01:56:22;;;;;;;;;;;7.10;99.90;;;;;;5096971;28;19962;-78
2022/04/27 01:58:57;;;;;;;;;;;7.30;99.90;;;;;;5097047;28;19931;-77
2022/04/27 02:01:25;;;;;;;;;;;7.30;99.90;;;;;;5096762;28;19984;-78
2022/04/27 02:03:59;;;;;;;;;;;7.20;99.90;;;;;;5097565;28;19950;-77
2022/04/27 02:06:35;;;;;;;;;;;7.20;99.90;;;;;;5097137;28;19930;-77
2022/04/27 02:09:07;;;;;;;;;;;7.20;99.90;;;;;;5097155;28;20354;-78
2022/04/27 02:11:44;;;;;;;;;;;7.10;99.90;;;;;;5086984;28;19920;-79
2022/04/27 02:14:11;;;;;;;;;;;;;;;;;;5104013;28;19930;-81
2022/04/27 02:16:40;;;;;;;;;;;7.10;99.90;;;;;;5084365;28;19978;-80
2022/04/27 02:19:17;;;;;;;;;;;7.00;99.90;;;;;;5082170;28;19939;-80
2022/04/27 02:21:47;;;;;;;;;;;3.50;99.90;;;;;;5102846;28;20306;-80
2022/04/27 02:24:17;;;;;;;;;;;7.00;99.90;;;;;;5093137;28;19955;-80
2022/04/27 02:26:45;;;;;;;;;;;6.90;99.90;;;;;;5092743;28;19935;-81
2022/04/27 02:29:16;;;;;;;;;;;6.80;99.90;;;;;;5092083;28;20872;-81
2022/04/27 02:31:45;;;;;;;;;;;6.70;99.90;;;;;;5097238;28;19928;-79
2022/04/27 02:34:15;;;;;;;;;;;6.70;99.90;;;;;;5078166;28;20295;-77
2022/04/27 02:36:43;;;;;;;;;;;6.60;99.90;;;;;;5084420;28;20655;-80
2022/04/27 02:39:15;;;;;;;;;;;6.50;99.90;;;;;;5089368;28;19923;-78
2022/04/27 02:41:43;;;;;;;;;;;6.40;99.90;;;;;;5084996;28;19932;-77
2022/04/27 02:44:11;;;;;;;;;;;6.40;99.90;;;;;;5080761;28;19924;-77
2022/04/27 02:46:39;;;;;;;;;;;6.30;99.90;;;;;;5088714;28;20030;-77
2022/04/27 02:51:53;;;;;;;;;;;6.20;99.90;;;;;;5103463;28;19916;-78
2022/04/27 02:54:28;;;;;;;;;;;6.10;99.90;;;;;;5085156;28;19931;-78
2022/04/27 02:57:04;;;;;;;;;;;6.10;99.90;;;;;;5093278;28;19935;-78
2022/04/27 02:59:33;;;;;;;;;;;6.00;99.90;;;;;;5080992;28;19936;-80
2022/04/27 03:02:01;;;;;;;;;;;6.00;99.90;;;;;;5081893;28;19938;-82
2022/04/27 03:04:29;;;;;;;;;;;5.90;99.90;;;;;;5092506;28;20304;-81
2022/04/27 03:06:57;;;;;;;;;;;5.90;99.90;;;;;;5105658;28;20816;-79
2022/04/27 03:09:27;;;;;;;;;;;5.90;99.90;;;;;;5084211;28;19928;-78
2022/04/27 03:11:55;;;;;;;;;;;5.80;99.90;;;;;;5067954;28;19928;-80
2022/04/27 03:14:36;;;;;;;;;;;5.80;99.90;;;;;;5097701;28;19950;-80
2022/04/27 03:17:03;;;;;;;;;;;5.80;99.90;;;;;;5095275;28;19924;-76
2022/04/27 03:19:31;;;;;;;;;;;;;;;;;;5084926;28;19983;-77
2022/04/27 03:22:01;;;;;;;;;;;5.70;99.90;;;;;;5085387;28;19962;-79
2022/04/27 03:24:30;;;;;;;;;;;5.70;99.90;;;;;;5085671;28;19966;-79
2022/04/27 03:27:12;;;;;;;;;;;5.60;99.90;;;;;;5077250;28;19924;-77
2022/04/27 03:29:41;;;;;;;;;;;5.60;99.90;;;;;;5105915;28;19971;-78
2022/04/27 03:32:11;;;;;;;;;;;5.60;99.90;;;;;;5079165;28;19920;-79
2022/04/27 03:34:46;;;;;;;;;;;5.60;99.90;;;;;;5087794;28;19931;-78
2022/04/27 03:37:21;;;;;;;;;;;5.50;99.90;;;;;;5092529;28;19930;-78
2022/04/27 03:39:50;;;;;;;;;;;;;;;;;;5113145;28;19919;-77
2022/04/27 03:42:21;;;;;;;;;;;;;;;;;;5094425;28;19931;-77
2022/04/27 03:44:56;;;;;;;;;;;5.50;99.90;;;;;;5091589;28;19920;-80
2022/04/27 03:47:26;;;;;;;;;;;5.40;99.90;;;;;;5085242;28;20299;-80
2022/04/27 03:49:59;;;;;;;;;;;;;;;;;;5086277;28;19928;-79
2022/04/27 03:52:31;;;;;;;;;;;;;;;;;;5113944;28;19920;-78
2022/04/27 03:55:11;;;;;;;;;;;5.40;99.90;;;;;;5098820;28;19924;-77
2022/04/27 03:57:48;;;;;;;;;;;;;;;;;;5098974;28;19930;-78
2022/04/27 04:00:25;;;;;;;;;;;;;;;;;;5092604;28;19924;-80
2022/04/27 04:03:04;;;;;;;;;;;5.30;99.90;;;;;;5094715;28;19931;-76
2022/04/27 04:05:35;;;;;;;;;;;;;;;;;;5078281;28;19928;-79
2022/04/27 04:08:07;;;;;;;;;;;5.30;99.90;;;;;;5078591;28;19946;-77
2022/04/27 04:10:36;;;;;;;;;;;;;;;;;;5077791;28;19920;-77
2022/04/27 04:13:15;;;;;;;;;;;5.30;99.90;;;;;;5092219;28;19925;-78
2022/04/27 04:16:02;;;;;;;;;;;5.30;99.90;;;;;;5076883;28;19928;-78
2022/04/27 04:19:18;;;;;;;;;;;5.30;99.90;;;;;;5015104;28;19926;-76
2022/04/27 04:22:09;;;;;;;;;;;5.20;99.90;;;;;;5074481;28;19920;-76
2022/04/27 04:30:34;;;;;;;;;;;5.20;99.90;;;;;;5105743;28;19912;-80
2022/04/27 04:33:38;;;;;;;;;;;5.20;99.90;;;;;;5061590;28;19920;-79
2022/04/27 04:36:11;;;;;;;;;;;;;;;;;;5082381;28;19935;-74
2022/04/27 04:38:45;;;;;;;;;;;5.20;99.90;;;;;;5092433;28;20347;-79
2022/04/27 04:41:21;;;;;;;;;;;5.30;99.90;;;;;;5090122;28;20423;-78
2022/04/27 04:43:50;;;;;;;;;;;;;;;;;;5089587;28;19935;-77
2022/04/27 04:46:20;;;;;;;;;;;;;;;;;;5103495;28;19920;-79
2022/04/27 04:49:08;;;;;;;;;;;5.40;99.90;;;;;;5094995;28;20190;-79
2022/04/27 04:51:46;;;;;;;;;;;5.50;99.90;;;;;;5098463;28;19921;-80
2022/04/27 04:54:45;;;;;;;;;;;5.60;99.90;;;;;;5081902;28;20085;-79
2022/04/27 04:57:30;;;;;;;;;;;5.70;99.90;;;;;;5099629;28;20449;-79
2022/04/27 05:00:33;;;;;;;;;;;5.90;99.90;;;;;;5072581;28;19924;-79
2022/04/27 05:03:17;;;;;;;;;;;;;;;;;;5093159;28;20367;-79
2022/04/27 05:05:47;;;;;;;;;;;6.30;99.90;;;;;;5089683;28;20136;-75
2022/04/27 05:08:26;;;;;;;;;;;6.30;99.90;;;;;;5097145;28;19924;-77
2022/04/27 05:11:08;;;;;;;;;;;6.40;99.90;;;;;;5081934;28;19920;-77
2022/04/27 05:14:00;;;;;;;;;;;6.40;99.90;;;;;;5082276;28;19928;-77
2022/04/27 05:16:44;;;;;;;;;;;6.70;99.90;;;;;;5105326;28;19924;-82
2022/04/27 05:19:34;;;;;;;;;;;6.70;99.90;;;;;;5090212;28;19924;-80
2022/04/27 05:22:39;;;;;;;;;;;7.00;99.90;;;;;;5080717;28;19920;-82
2022/04/27 05:25:28;;;;;;;;;;;7.10;99.90;;;;;;5091404;28;19946;-79
2022/04/27 05:28:07;;;;;;;;;;;7.30;99.90;;;;;;5093809;28;19924;-80
2022/04/27 05:34:00;;;;;;;;;;;7.50;99.90;;;;;;5097664;28;19970;-81
2022/04/27 05:36:37;;;;;;;;;;;8.60;99.90;;;;;;5094943;28;20350;-80
2022/04/27 05:39:41;;;;;;;;;;;8.70;99.90;;;;;;5094361;28;19928;-80
2022/04/27 05:42:22;;;;;;;;;;;9.70;99.90;;;;;;5095534;28;19989;-80
2022/04/27 05:45:05;;;;;;;;;;;10.60;99.90;;;;;;5090359;28;20033;-81
2022/04/27 05:47:48;;;;;;;;;;;11.50;99.90;;;;;;5104467;28;19936;-81
2022/04/27 05:50:42;;;;;;;;;;;12.40;99.90;;;;;;5062302;28;19943;-80
2022/04/27 05:53:20;;;;;;;;;;;14.30;99.90;;;;;;5093424;28;19928;-81
2022/04/27 05:56:07;;;;;;;;;;;14.30;99.90;;;;;;5099019;28;19924;-80
2022/04/27 05:58:52;;;;;;;;;;;14.80;99.90;;;;;;5099074;28;19934;-79
2022/04/27 06:01:38;;;;;;;;;;;15.70;99.90;;;;;;5093274;28;20390;-79
2022/04/27 06:04:09;;;;;;;;;;;16.40;99.90;;;;;;5093838;28;19923;-79
2022/04/27 06:06:45;;;;;;;;;;;16.80;99.90;;;;;;5094659;28;19946;-79
2022/04/27 06:09:14;;;;;;;;;;;16.80;99.90;;;;;;5092306;28;19930;-78
2022/04/27 06:11:58;;;;;;;;;;;17.30;99.90;;;;;;5077234;28;19928;-77
2022/04/27 06:14:41;;;;;;;;;;;18.20;99.90;;;;;;5081511;28;19932;-77
2022/04/27 06:17:32;;;;;;;;;;;19.80;99.90;;;;;;5101261;28;19927;-79
2022/04/27 06:20:02;;;;;;;;;;;19.80;99.90;;;;;;5087606;28;20418;-79
2022/04/27 06:22:30;;;;;;;;;;;20.40;99.90;;;;;;5080547;28;19991;-80
2022/04/27 06:24:57;;;;;;;;;;;21.10;99.90;;;;;;5078062;28;19931;-77
2022/04/27 06:27:36;;;;;;;;;;;21.20;99.90;;;;;;5083657;28;20453;-78
2022/04/27 06:30:04;;;;;;;;;;;21.30;99.90;;;;;;5084816;28;19927;-80
2022/04/27 06:32:35;;;;;;;;;;;21.50;99.90;;;;;;5085504;28;19934;-79
2022/04/27 06:35:06;;;;;;;;;;;21.70;99.90;;;;;;5083896;28;19938;-79
2022/04/27 06:37:34;;;;;;;;;;;22.00;99.90;;;;;;5082011;28;19935;-78
2022/04/27 06:40:02;;;;;;;;;;;21.70;99.90;;;;;;5083869;28;19928;-77
2022/04/27 06:42:30;;;;;;;;;;;22.00;99.90;;;;;;5087552;28;19924;-79
2022/04/27 06:45:15;;;;;;;;;;;22.70;99.90;;;;;;5086087;28;19930;-79
2022/04/27 06:48:02;;;;;;;;;;;22.80;99.90;;;;;;5086453;28;19931;-79
2022/04/27 06:50:48;;;;;;;;;;;23.30;99.90;;;;;;5087212;28;20502;-79
2022/04/27 06:56:07;;;;;;;;;;;23.60;99.90;;;;;;5017149;28;19935;-76
2022/04/27 06:58:43;;;;;;;;;;;23.60;99.90;;;;;;5018405;28;19960;-77
2022/04/27 07:01:36;;;;;;;;;;;23.50;99.90;;;;;;5017540;28;20357;-76
2022/04/27 07:04:11;;;;;;;;;;;23.40;99.90;;;;;;5006621;28;19925;-79
2022/04/27 07:06:38;;;;;;;;;;;23.70;99.90;;;;;;5021741;28;19921;-77
2022/04/27 07:09:05;;;;;;;;;;;24.70;99.90;;;;;;5016022;28;19921;-78
2022/04/27 07:11:32;;;;;;;;;;;25.00;99.90;;;;;;5004156;28;20406;-77
2022/04/27 07:13:58;;;;;;;;;;;24.50;99.90;;;;;;5003705;28;19948;-80
2022/04/27 07:16:25;;;;;;;;;;;24.40;99.90;;;;;;5018805;28;19925;-77
2022/04/27 07:18:53;;;;;;;;;;;24.60;99.90;;;;;;5021138;28;19924;-76
2022/04/27 07:21:21;;;;;;;;;;;24.50;99.90;;;;;;5006089;28;19921;-76
2022/04/27 07:23:49;;;;;;;;;;;24.60;99.90;;;;;;5015241;28;19921;-76
2022/04/27 07:26:15;;;;;;;;;;;24.50;99.90;;;;;;5014776;28;19929;-76
2022/04/27 07:28:42;;;;;;;;;;;24.60;99.70;;;;;;5006362;28;19925;-77
2022/04/27 07:31:09;;;;;;;;;;;24.00;98.50;;;;;;5015568;28;19956;-78
2022/04/27 07:33:36;;;;;;;;;;;24.00;97.90;;;;;;5016332;28;19925;-78
2022/04/27 07:36:05;;;;;;;;;;;23.70;98.70;;;;;;5017108;28;19921;-77
2022/04/27 07:38:33;;;;;;;;;;;24.20;99.90;;;;;;5020808;28;19925;-77
2022/04/27 07:41:00;;;;;;;;;;;24.40;95.60;;;;;;5014800;28;20298;-75
2022/04/27 07:43:26;;;;;;;;;;;24.10;94.30;;;;;;5026882;28;19936;-75
2022/04/27 07:45:53;;;;;;;;;;;24.30;92.70;;;;;;5017892;28;20015;-75
2022/04/27 07:48:20;;;;;;;;;;;24.20;94.90;;;;;;5026664;28;19925;-76
2022/04/27 07:50:46;;;;;;;;;;;24.30;92.30;;;;;;5024401;28;19925;-74
2022/04/27 07:53:13;;;;;;;;;;;24.40;92.90;;;;;;5021047;28;19920;-74
2022/04/27 07:55:41;;;;;;;;;;;24.50;92.20;;;;;;5028628;28;19932;-74
2022/04/27 07:58:08;;;;;;;;;;;24.80;92.00;;;;;;5024310;28;19925;-75
2022/04/27 08:00:35;;;;;;;;;;;24.60;91.20;;;;;;5022764;28;19921;-75
2022/04/27 08:03:02;;;;;;;;;;;24.70;90.30;;;;;;5017008;28;20427;-74
2022/04/27 08:05:29;;;;;;;;;;;24.40;88.10;;;;;;5004626;28;19928;-75
2022/04/27 08:07:55;;;;;;;;;;;24.50;90.80;;;;;;5019258;28;19920;-74
2022/04/27 08:10:22;;;;;;;;;;;24.40;89.00;;;;;;5022278;28;19928;-74
2022/04/27 08:12:50;;;;;;;;;;;24.00;90.40;;;;;;5012031;28;19925;-76
2022/04/27 08:15:17;;;;;;;;;;;23.90;88.70;;;;;;5029064;28;19925;-75
2022/04/27 08:17:51;;;;;;;;;;;24.00;90.60;;;;;;5009965;28;19925;-74
2022/04/27 08:23:03;;;;;;;;;;;24.00;90.70;;;;;;5021299;28;19932;-74
2022/04/27 08:25:30;;;;;;;;;;;24.40;91.30;;;;;;5026023;28;20239;-74
2022/04/27 08:27:58;;;;;;;;;;;24.80;89.30;;;;;;5026545;28;20111;-74
2022/04/27 08:30:25;;;;;;;;;;;24.70;82.10;;;;;;5011844;28;20389;-74
2022/04/27 08:32:51;;;;;;;;;;;24.30;86.70;;;;;;5010466;28;20309;-74
2022/04/27 08:35:18;;;;;;;;;;;23.90;88.00;;;;;;5009287;28;19921;-74
2022/04/27 08:37:45;;;;;;;;;;;23.60;87.50;;;;;;5018146;28;19924;-74
2022/04/27 08:40:12;;;;;;;;;;;23.80;86.60;;;;;;5025994;28;19929;-74
2022/04/27 08:42:38;;;;;;;;;;;23.80;86.80;;;;;;5000657;28;19931;-74
2022/04/27 08:45:07;;;;;;;;;;;23.50;84.40;;;;;;5010557;28;19936;-75
2022/04/27 08:47:35;;;;;;;;;;;23.40;86.50;;;;;;5022664;28;19944;-74
2022/04/27 08:50:10;;;;;;;;;;;23.50;87.20;;;;;;5006858;28;19926;-74
2022/04/27 08:52:38;;;;;;;;;;;23.50;85.50;;;;;;5022555;28;20312;-75
2022/04/27 08:55:05;;;;;;;;;;;23.60;88.00;;;;;;5000489;28;20249;-74
2022/04/27 08:57:32;;;;;;;;;;;23.80;86.70;;;;;;5017861;28;19932;-75
2022/04/27 08:59:58;;;;;;;;;;;23.10;85.50;;;;;;5018592;28;19928;-75
2022/04/27 09:02:27;;;;;;;;;;;23.10;85.70;;;;;;5020832;28;19932;-75
2022/04/27 09:05:07;;;;;;;;;;;22.90;84.60;;;;;;5021206;28;19925;-75
2022/04/27 09:07:38;;;;;;;;;;;22.80;84.60;;;;;;5000830;28;19933;-78
2022/04/27 09:10:05;;;;;;;;;;;22.70;85.70;;;;;;5012829;28;19939;-80
2022/04/27 09:12:32;;;;;;;;;;;22.70;88.30;;;;;;5017414;28;19925;-77
2022/04/27 09:15:04;;;;;;;;;;;22.90;85.60;;;;;;5017383;28;19925;-79
2022/04/27 09:23:02;;;;;;;;;;;21.10;86.90;;;;;;4999822;28;20020;-78
2022/04/27 09:25:33;;;;;;;;;;;21.20;86.40;;;;;;5031639;28;19925;-80
2022/04/27 09:28:00;;;;;;;;;;;21.40;86.80;;;;;;5046953;28;19935;-80
2022/04/27 09:30:30;;;;;;;;;;;21.50;86.80;;;;;;5040839;28;20359;-81
2022/04/27 09:32:58;;;;;;;;;;;21.70;88.00;;;;;;5022883;28;19928;-79
2022/04/27 09:35:32;;;;;;;;;;;21.90;90.60;;;;;;5036485;28;19929;-78
2022/04/27 09:38:12;;;;;;;;;;;22.20;86.20;;;;;;5018949;28;20382;-79
2022/04/27 09:40:43;;;;;;;;;;;21.70;85.60;;;;;;5017047;28;19932;-78
2022/04/27 09:43:12;;;;;;;;;;;22.60;86.20;;;;;;5017122;28;19924;-79
2022/04/27 09:45:40;;;;;;;;;;;20.80;83.50;;;;;;5045964;28;19951;-77
2022/04/27 09:48:11;;;;;;;;;;;19.90;84.10;;;;;;5038715;28;19943;-80
2022/04/27 09:50:48;;;;;;;;;;;19.20;84.10;;;;;;5015078;28;20370;-76
2022/04/27 09:53:18;;;;;;;;;;;18.70;85.50;;;;;;5019581;28;19929;-79
2022/04/27 09:55:46;;;;;;;;;;;18.50;86.20;;;;;;5023465;28;20378;-78
2022/04/27 09:58:13;;;;;;;;;;;18.40;87.10;;;;;;5026652;28;19929;-81
2022/04/27 10:00:41;;;;;;;;;;;18.20;87.10;;;;;;5027602;28;19921;-79
2022/04/27 10:03:10;;;;;;;;;;;18.10;87.10;;;;;;5028220;28;19947;-79
2022/04/27 10:05:37;;;;;;;;;;;18.00;87.60;;;;;;5024357;28;19933;-82
2022/04/27 10:08:05;;;;;;;;;;;20.40;88.80;;;;;;5015779;28;20238;-78
2022/04/27 10:10:32;;;;;;;;;;;17.40;87.20;;;;;;4991332;28;22128;-80
2022/04/27 10:13:01;;;;;;;;;;;17.40;87.80;;;;;;5005150;28;20187;-78
2022/04/27 10:15:28;;;;;;;;;;;17.30;89.00;;;;;;5004673;28;19936;-78
2022/04/27 10:17:55;;;;;;;;;;;17.40;90.20;;;;;;5002974;28;20477;-76
2022/04/27 10:20:30;;;;;;;;;;;18.70;90.40;;;;;;5008901;28;20107;-81
2022/04/27 10:23:15;;;;;;;;;;;17.70;90.00;;;;;;5006837;28;19925;-75
2022/04/27 10:25:42;;;;;;;;;;;17.60;88.70;;;;;;5009948;28;21574;-76
2022/04/27 10:28:16;;;;;;;;;;;17.50;89.20;;;;;;5011462;28;19948;-76
2022/04/27 10:30:43;;;;;;;;;;;17.70;90.00;;;;;;5014079;28;20464;-76
2022/04/27 10:33:10;;;;;;;;;;;17.80;90.00;;;;;;5012631;28;20014;-75
2022/04/27 10:35:38;;;;;;;;;;;17.90;90.20;;;;;;4995470;28;20405;-74
2022/04/27 10:38:06;;;;;;;;;;;18.00;90.10;;;;;;5009864;28;20382;-75
2022/04/27 10:40:33;;;;;;;;;;;17.90;89.70;;;;;;5011947;28;19991;-76
2022/04/27 10:43:13;;;;;;;;;;;17.80;88.90;;;;;;5012126;28;20010;-75
2022/04/27 10:45:41;;;;;;;;;;;17.60;87.90;;;;;;5016086;28;20387;-77
2022/04/27 10:48:09;;;;;;;;;;;17.50;89.50;;;;;;5015535;28;20003;-74
2022/04/27 10:50:36;;;;;;;;;;;17.50;89.90;;;;;;5000824;28;20015;-74
2022/04/27 10:53:21;;;;;;;;;;;17.70;89.70;;;;;;4985472;28;20055;-75
2022/04/27 10:55:51;;;;;;;;;;;17.90;89.80;;;;;;5019282;28;19944;-75
2022/04/27 10:58:18;;;;;;;;;;;18.00;90.40;;;;;;5014817;28;19921;-75
2022/04/27 11:01:05;;;;;;;;;;;17.90;89.60;;;;;;5018315;28;20421;-75
2022/04/27 11:03:34;;;;;;;;;;;17.90;90.50;;;;;;5001816;28;21497;-75
2022/04/27 11:06:02;;;;;;;;;;;18.20;90.60;;;;;;5023733;28;19936;-76
2022/04/27 11:08:40;;;;;;;;;;;18.40;90.80;;;;;;5019547;28;20171;-76
2022/04/27 11:11:08;;;;;;;;;;;18.80;90.00;;;;;;5026769;28;20034;-75
2022/04/27 11:13:36;;;;;;;;;;;18.80;90.00;;;;;;5019884;28;20461;-75
2022/04/27 11:16:07;;;;;;;;;;;18.90;90.50;;;;;;5012581;28;19929;-76
2022/04/27 11:18:48;;;;;;;;;;;21.00;91.30;;;;;;5008553;28;19961;-76
2022/04/27 11:21:14;;;;;;;;;;;18.90;90.30;;;;;;5005450;28;19925;-75
2022/04/27 11:23:43;;;;;;;;;;;18.90;90.20;;;;;;5009590;28;19925;-78
2022/04/27 11:26:10;;;;;;;;;;;19.00;90.40;;;;;;5003383;28;19932;-77
2022/04/27 11:28:39;;;;;;;;;;;19.20;90.00;;;;;;5014117;28;19921;-76
2022/04/27 11:31:06;;;;;;;;;;;19.40;89.70;;;;;;5008017;28;20008;-77
2022/04/27 11:33:38;;;;;;;;;;;19.40;89.80;;;;;;5011658;28;19937;-75
2022/04/27 11:36:05;;;;;;;;;;;19.20;88.00;;;;;;4995386;28;19951;-76
2022/04/27 11:38:35;;;;;;;;;;;19.00;88.70;;;;;;4993064;28;20417;-76
2022/04/27 11:41:04;;;;;;;;;;;18.80;88.50;;;;;;5010159;28;19933;-76
2022/04/27 11:43:32;;;;;;;;;;;18.80;89.10;;;;;;5015502;28;20358;-75
2022/04/27 11:45:58;;;;;;;;;;;19.10;90.00;;;;;;5014982;28;19925;-76
2022/04/27 11:48:29;;;;;;;;;;;19.00;89.80;;;;;;5011808;28;19936;-76
2022/04/27 11:50:57;;;;;;;;;;;19.20;89.20;;;;;;5007084;28;20003;-76
2022/04/27 11:53:24;;;;;;;;;;;19.20;89.70;;;;;;5019285;28;19929;-76
2022/04/27 11:55:51;;;;;;;;;;;19.20;89.20;;;;;;5022877;28;19925;-75
2022/04/27 11:58:22;;;;;;;;;;;19.30;89.70;;;;;;5021827;28;20279;-76
2022/04/27 12:00:50;;;;;;;;;;;19.20;89.30;;;;;;5013641;28;20020;-76
2022/04/27 12:03:17;;;;;;;;;;;19.30;88.80;;;;;;5006320;28;20023;-76
2022/04/27 12:05:49;;;;;;;;;;;19.50;90.20;;;;;;5019797;28;19925;-76
2022/04/27 12:08:19;;;;;;;;;;;19.70;90.50;;;;;;5016043;28;19928;-75
2022/04/27 12:10:46;;;;;;;;;;;19.90;90.60;;;;;;5009182;28;20257;-75
2022/04/27 12:13:14;;;;;;;;;;;20.30;90.60;;;;;;4999991;28;20389;-75
2022/04/27 12:15:43;;;;;;;;;;;20.30;88.70;;;;;;4999396;28;19925;-74
2022/04/27 12:18:14;;;;;;;;;;;20.40;89.80;;;;;;5015147;28;19932;-75
2022/04/27 12:20:41;;;;;;;;;;;20.40;88.40;;;;;;5016955;28;19929;-75
2022/04/27 12:23:09;;;;;;;;;;;20.50;89.50;;;;;;5017828;28;19960;-75
2022/04/27 12:25:37;;;;;;;;;;;20.60;89.20;;;;;;4999579;28;20388;-75
2022/04/27 12:28:04;;;;;;;;;;;20.40;88.60;;;;;;5000328;28;20035;-75
2022/04/27 12:30:31;;;;;;;;;;;20.20;88.60;;;;;;5022463;28;19929;-75
2022/04/27 12:32:59;;;;;;;;;;;19.90;88.50;;;;;;5006010;28;19991;-76
2022/04/27 12:38:17;;;;;;;;;;;20.00;89.80;;;;;;4998826;28;19921;-77
2022/04/27 12:40:44;;;;;;;;;;;20.10;89.30;;;;;;5011570;28;19941;-75
2022/04/27 12:43:12;;;;;;;;;;;20.10;87.40;;;;;;5023864;28;19931;-76
2022/04/27 12:45:39;;;;;;;;;;;20.20;89.00;;;;;;5019609;28;19932;-76
2022/04/27 12:48:27;;;;;;;;;;;20.40;89.40;;;;;;5013502;28;19929;-75
2022/04/27 12:50:53;;;;;;;;;;;20.60;89.10;;;;;;5009497;28;20492;-75
2022/04/27 12:53:20;;;;;;;;;;;20.30;85.80;;;;;;5012870;28;20005;-76
2022/04/27 12:56:00;;;;;;;;;;;20.20;87.00;;;;;;5013328;28;19928;-75
2022/04/27 12:58:26;;;;;;;;;;;20.30;87.00;;;;;;5012905;28;20281;-75
2022/04/27 13:00:53;;;;;;;;;;;20.40;87.80;;;;;;5009037;28;20858;-74
2022/04/27 13:03:22;;;;;;;;;;;20.50;87.60;;;;;;5011945;28;20027;-75
2022/04/27 13:05:50;;;;;;;;;;;20.50;87.20;;;;;;5016351;28;19925;-75
2022/04/27 13:08:17;;;;;;;;;;;20.60;88.40;;;;;;5017895;28;19960;-75
2022/04/27 13:13:29;;;;;;;;;;;20.90;87.60;;;;;;5019528;28;20299;-75
2022/04/27 13:15:55;;;;;;;;;;;21.00;84.60;;;;;;5017008;28;19925;-76
2022/04/27 13:18:24;;;;;;;;;;;21.00;85.20;;;;;;5021621;28;19925;-77
2022/04/27 13:20:50;;;;;;;;;;;20.90;86.70;;;;;;5020996;28;19933;-76
2022/04/27 13:23:17;;;;;;;;;;;20.90;86.90;;;;;;5015679;28;20069;-76
2022/04/27 13:25:44;;;;;;;;;;;21.10;86.70;;;;;;5027842;28;19925;-75
2022/04/27 13:28:12;;;;;;;;;;;21.00;86.70;;;;;;5001593;28;20004;-75
2022/04/27 13:30:40;;;;;;;;;;;20.80;87.00;;;;;;5057743;22;19928;-80
2022/04/27 13:33:07;;;;;;;;;;;20.90;86.40;;;;;;5080536;28;19950;-81
2022/04/27 13:35:35;;;;;;;;;;;20.80;85.60;;;;;;5083282;28;20087;-82
2022/04/27 13:38:05;;;;;;;;;;;20.80;84.60;;;;;;5097693;28;19946;-83
2022/04/27 13:40:31;;;;;;;;;;;20.70;85.30;;;;;;5083368;28;19925;-82
2022/04/27 13:42:59;;;;;;;;;;;20.80;85.70;;;;;;5080788;28;20041;-83
2022/04/27 13:45:34;;;;;;;;;;;21.00;85.20;;;;;;5090805;28;19926;-80
2022/04/27 13:48:01;;;;;;;;;;;21.00;84.70;;;;;;5075468;28;20289;-80
2022/04/27 13:50:29;;;;;;;;;;;21.10;86.20;;;;;;5076566;28;19920;-84
2022/04/27 13:52:58;;;;;;;;;;;21.30;86.80;;;;;;5082259;28;19988;-81
2022/04/27 13:55:30;;;;;;;;;;;21.30;86.80;;;;;;5092639;28;19936;-82
2022/04/27 13:57:57;;;;;;;;;;;21.50;86.10;;;;;;5079698;28;19920;-81
2022/04/27 14:00:26;;;;;;;;;;;21.40;86.20;;;;;;5100691;28;19920;-80
2022/04/27 14:02:54;;;;;;;;;;;21.40;84.90;;;;;;5090926;28;19920;-81
2022/04/27 14:05:20;;;;;;;;;;;21.10;85.50;;;;;;5095865;28;19947;-81
2022/04/27 14:07:48;;;;;;;;;;;21.10;85.50;;;;;;5085127;28;19921;-83
2022/04/27 14:10:17;;;;;;;;;;;21.20;85.80;;;;;;5090042;28;19969;-82
2022/04/27 14:15:29;;;;;;;;;;;21.30;84.10;;;;;;5077450;28;20363;-82
2022/04/27 14:18:11;;;;;;;;;;;21.40;84.40;;;;;;5093565;28;19924;-81
2022/04/27 14:20:39;;;;;;;;;;;21.20;83.50;;;;;;5080306;28;19943;-81
2022/04/27 14:23:06;;;;;;;;;;;21.00;83.40;;;;;;5090311;28;20268;-80
2022/04/27 14:25:35;;;;;;;;;;;21.00;85.20;;;;;;5088989;28;20640;-80
2022/04/27 14:28:02;;;;;;;;;;;21.00;85.70;;;;;;5087947;28;20315;-81
2022/04/27 14:30:29;;;;;;;;;;;21.10;85.10;;;;;;5076829;28;19924;-81
2022/04/27 14:32:56;;;;;;;;;;;21.10;85.10;;;;;;5083249;28;20310;-84
2022/04/27 14:35:23;;;;;;;;;;;21.10;85.00;;;;;;5065405;28;19921;-79
2022/04/27 14:37:50;;;;;;;;;;;21.30;83.80;;;;;;5072274;28;20383;-82
2022/04/27 14:40:17;;;;;;;;;;;21.00;84.50;;;;;;5081371;28;19951;-82
2022/04/27 14:42:46;;;;;;;;;;;20.90;85.00;;;;;;5086813;28;19931;-82
2022/04/27 14:45:13;;;;;;;;;;;20.90;86.20;;;;;;5082941;28;20061;-82
2022/04/27 14:47:40;;;;;;;;;;;21.00;85.30;;;;;;5081621;28;19912;-81
2022/04/27 14:50:08;;;;;;;;;;;21.10;84.90;;;;;;5101968;28;20613;-82
2022/04/27 14:52:36;;;;;;;;;;;21.10;85.10;;;;;;5114717;28;19927;-82
2022/04/27 14:55:03;;;;;;;;;;;20.90;84.40;;;;;;5081659;28;20000;-82
2022/04/27 14:57:30;;;;;;;;;;;20.90;84.90;;;;;;5080108;28;19924;-82
2022/04/27 14:59:59;;;;;;;;;;;20.90;84.50;;;;;;5097986;28;19932;-82
2022/04/27 15:02:26;;;;;;;;;;;20.80;84.00;;;;;;5084100;28;20467;-82
2022/04/27 15:04:54;;;;;;;;;;;20.70;84.40;;;;;;5076790;28;19921;-82
2022/04/27 15:07:21;;;;;;;;;;;20.70;84.30;;;;;;5079929;28;19928;-82
2022/04/27 15:09:48;;;;;;;;;;;20.60;83.30;;;;;;5075034;28;20012;-82
2022/04/27 15:12:14;;;;;;;;;;;20.40;83.20;;;;;;5090518;28;19932;-79
2022/04/27 15:14:42;;;;;;;;;;;20.10;83.40;;;;;;5094778;28;19947;-82
2022/04/27 15:17:11;;;;;;;;;;;20.10;84.80;;;;;;5080667;28;19928;-82
2022/04/27 15:19:38;;;;;;;;;;;20.10;84.10;;;;;;5100931;28;19925;-81
2022/04/27 15:24:50;;;;;;;;;;;20.10;84.30;;;;;;5099596;28;19916;-82
2022/04/27 15:27:16;;;;;;;;;;;19.90;85.00;;;;;;5083694;28;19925;-81
2022/04/27 15:29:44;;;;;;;;;;;19.80;84.80;;;;;;5087200;28;19924;-82